Trang, Thailand

9:45 PM ICT on February 08, 2016 (GMT +0700)
Krabi | | Change Station
CLOSE
Current Station
Airport
Location: Krabi,
Elevation: 82 ft
Nearby Weather Stations

Elev 82 ft 8.10 °N, 98.99 °E | Updated 45 minutes ago

Scattered Clouds
Scattered Clouds
75 °F
Feels Like 75 °F
N
7
Wind Variable Wind from NNE

Today
High -- | Low -- °F
--% Chance of Precip.
Yesterday
High -- | Low -- °F
Precip. -- in
Pressure 29.92 in
Visibility 4.3 miles
Clouds Few 2000 ft
Scattered Clouds 30000 ft
Dew Point 66 °F
Humidity 73%
Rainfall 0.00 in
Snow Depth Not available.
6:40 AM 6:31 PM
Waning Crescent, 0% visible
METAR VTSG 081400Z 02006KT 310V050 7000 FEW020 SCT300 24/19 Q1013 A2993
Pressure 29.92 in
Visibility 4.3 miles
Clouds Few 2000 ft
Scattered Clouds 30000 ft
Dew Point 66 °F
Humidity 73%
Rainfall 0.00 in
Snow Depth Not available.
6:40 AM 6:31 PM
Waning Crescent, 0% visible
METAR VTSG 081400Z 02006KT 310V050 7000 FEW020 SCT300 24/19 Q1013 A2993

10-Day Weather Forecast

No radar image for this location.
×

Almanac

Astronomy

Feb. 08, 2016 Rise Set
Actual Time
Civil Twilight
Nautical Twilight
Astronomical Twilight
Moon
Length of Visible Light
Length of Day
Tomorrow will be .
, % of the Moon is Illuminated

Today's Extremes

Country Highs Country Lows

Community

WunderPhotos

Upload Photos

1,891,437 photos uploaded!

WunderBlog® & News

Nearby

Air Quality

  Air Quality AQ Index Pollutant
Not available.

Snow Depth

Station Depth Elevation

Earthquake Activity

City Distance Mag. Time & Date
Minimum magnitude displayed is 2.5.

Coastal Water Temperatures

Place Temperature

Stations

Nearby Weather Stations

Station Location Temp. Windchill Dew Point Humidity Wind Precip. Elev Updated Type